Time;durP1;ratioP1;P1;durP2;ratioP2;P2;SDS_P1;SDS_P2;PMS_P1;PMS_P2;Temp;Humidity;BMP_temperature;BMP_pressure;BME280_temperature;BME280_humidity;BME280_pressure;Samples;Min_cycle;Max_cycle;Signal;HPM_P1;HPM_P2
2023/06/19 00:01:53;;;;;;;8.20;7.70;;;;;;;23.32;77.35;99821.97;5078138;28;20228;-77
2023/06/19 00:04:19;;;;;;;9.03;8.33;;;;;;;23.29;76.98;99821.25;5088354;28;20188;-77
2023/06/19 00:06:44;;;;;;;10.97;9.33;;;;;;;23.26;76.69;99831.19;5086867;28;20756;-76
2023/06/19 00:09:09;;;;;;;11.27;9.03;;;;;;;23.21;77.01;99839.41;5086131;28;20197;-75
2023/06/19 00:11:34;;;;;;;8.77;8.03;;;;;;;23.17;77.63;99847.63;5082019;28;20212;-76
2023/06/19 00:14:00;;;;;;;8.70;7.87;;;;;;;23.14;79.08;99857.44;5085386;28;20239;-76
2023/06/19 00:16:26;;;;;;;8.10;7.37;;;;;;;23.13;79.22;99863.69;5082113;28;20186;-76
2023/06/19 00:18:55;;;;;;;10.27;6.63;;;;;;;23.14;80.04;99877.72;5091035;28;20189;-77
2023/06/19 00:21:25;;;;;;;7.27;6.57;;;;;;;23.13;80.23;99884.78;5088439;28;20311;-77
2023/06/19 00:23:52;;;;;;;9.27;6.37;;;;;;;23.14;81.01;99894.41;5078636;28;20185;-78
2023/06/19 00:26:17;;;;;;;9.93;6.50;;;;;;;23.18;80.30;99908.22;5084680;28;20302;-77
2023/06/19 00:28:45;;;;;;;8.03;5.80;;;;;;;23.21;80.01;99910.69;5083957;28;20196;-77
2023/06/19 00:31:13;;;;;;;15.87;6.07;;;;;;;23.24;79.66;99918.41;5077696;28;20220;-75
2023/06/19 00:33:39;;;;;;;17.27;5.87;;;;;;;23.25;80.15;99924.53;5086764;28;20184;-77
2023/06/19 00:36:12;;;;;;;7.97;4.93;;;;;;;23.23;80.86;99922.00;5091133;28;20542;-77
2023/06/19 00:38:39;;;;;;;5.53;5.00;;;;;;;23.22;80.71;99927.38;5086352;28;20197;-76
2023/06/19 00:41:05;;;;;;;7.57;4.80;;;;;;;23.19;81.10;99924.94;5090147;28;20340;-76
2023/06/19 00:43:30;;;;;;;5.93;4.60;;;;;;;23.16;81.88;99939.16;5089153;28;20200;-77
2023/06/19 00:45:57;;;;;;;7.20;3.80;;;;;;;23.15;82.65;99940.09;5088940;28;20188;-76
2023/06/19 00:48:22;;;;;;;4.30;3.90;;;;;;;23.10;83.92;99953.63;5093404;28;20681;-77
2023/06/19 00:50:49;;;;;;;4.07;3.70;;;;;;;23.06;85.44;99948.66;5085079;28;20200;-76
2023/06/19 00:53:15;;;;;;;4.10;3.80;;;;;;;22.99;87.83;99958.78;5086336;28;20217;-76
2023/06/19 00:55:40;;;;;;;6.77;4.00;;;;;;;22.92;89.49;99966.25;5091923;28;20197;-77
2023/06/19 00:58:06;;;;;;;5.13;4.10;;;;;;;22.86;90.82;99971.09;5084207;28;20186;-75
2023/06/19 01:00:31;;;;;;;7.03;3.60;;;;;;;22.73;92.17;99979.81;5082808;28;20248;-75
2023/06/19 01:02:57;;;;;;;11.87;4.50;;;;;;;22.65;96.25;99982.94;5081370;28;20609;-76
2023/06/19 01:05:23;;;;;;;6.03;3.70;;;;;;;22.58;98.35;99986.06;5086704;28;20185;-76
2023/06/19 01:08:14;;;;;;;5.10;3.20;;;;;;;22.41;100.00;99985.31;5095051;28;20189;-75
2023/06/19 01:10:43;;;;;;;3.53;3.23;;;;;;;22.23;100.00;99988.16;5084617;28;20225;-77
2023/06/19 01:13:21;;;;;;;4.80;3.17;;;;;;;22.13;100.00;99989.69;5094077;28;20185;-76
2023/06/19 01:15:47;;;;;;;5.93;3.87;;;;;;;22.03;100.00;99981.50;5078281;28;20195;-75
2023/06/19 01:18:14;;;;;;;5.63;4.10;;;;;;;21.87;100.00;99978.13;5077057;28;20184;-76
2023/06/19 01:20:40;;;;;;;4.43;4.03;;;;;;;21.78;100.00;99971.63;5086667;28;20230;-77
2023/06/19 01:23:10;;;;;;;4.00;3.70;;;;;;;21.72;100.00;99972.00;5085812;28;20567;-75
2023/06/19 01:25:35;;;;;;;4.27;3.47;;;;;;;21.67;100.00;99964.38;5080924;28;20347;-78
2023/06/19 01:28:05;;;;;;;4.27;3.97;;;;;;;21.61;100.00;99941.06;5081948;28;20272;-75
2023/06/19 01:30:32;;;;;;;5.37;3.87;;;;;;;21.56;100.00;99927.28;5083331;28;20288;-75
2023/06/19 01:33:02;;;;;;;3.90;3.50;;;;;;;21.51;100.00;99926.72;5083627;28;20189;-75
2023/06/19 01:35:31;;;;;;;3.77;3.47;;;;;;;21.43;100.00;99922.78;5075936;28;20200;-75
2023/06/19 01:37:59;;;;;;;3.73;3.30;;;;;;;21.35;100.00;99882.91;5080142;28;20185;-74
2023/06/19 01:40:25;;;;;;;3.37;3.17;;;;;;;21.30;100.00;99891.06;5081947;28;20216;-75
2023/06/19 01:42:52;;;;;;;3.33;3.13;;;;;;;21.30;100.00;99904.22;5082945;28;20206;-76
2023/06/19 01:45:18;;;;;;;3.40;3.10;;;;;;;21.24;100.00;99888.81;5086341;28;20189;-75
2023/06/19 01:47:43;;;;;;;3.50;3.20;;;;;;;21.22;100.00;99901.22;5088554;28;20593;-75
2023/06/19 01:50:10;;;;;;;3.97;3.63;;;;;;;21.19;100.00;99896.16;5082061;28;20211;-75
2023/06/19 01:52:36;;;;;;;3.30;3.00;;;;;;;21.15;100.00;99905.16;5086623;28;20190;-74
2023/06/19 01:55:02;;;;;;;3.13;2.83;;;;;;;21.11;100.00;99899.22;5086813;28;20191;-76
2023/06/19 01:57:27;;;;;;;2.83;2.63;;;;;;;21.08;100.00;99894.16;5108070;28;20823;-75
2023/06/19 01:59:53;;;;;;;3.23;2.93;;;;;;;21.05;100.00;99904.00;5096529;28;20195;-75
2023/06/19 02:02:18;;;;;;;3.67;3.37;;;;;;;21.04;100.00;99891.78;5085896;28;20205;-76
2023/06/19 02:04:43;;;;;;;3.53;3.23;;;;;;;21.00;100.00;99878.81;5096877;28;20186;-75
2023/06/19 02:07:09;;;;;;;3.57;3.37;;;;;;;20.98;100.00;99878.06;5087357;28;20182;-76
2023/06/19 02:09:34;;;;;;;4.33;3.63;;;;;;;20.94;100.00;99871.31;5088681;28;20189;-76
2023/06/19 02:12:00;;;;;;;3.50;3.27;;;;;;;20.90;100.00;99885.56;5101943;28;20747;-76
2023/06/19 02:14:25;;;;;;;3.40;3.20;;;;;;;20.89;100.00;99881.25;5100223;28;20310;-76
2023/06/19 02:16:50;;;;;;;3.07;2.87;;;;;;;20.86;100.00;99879.66;5091012;28;20309;-75
2023/06/19 02:19:15;;;;;;;3.33;3.03;;;;;;;20.84;100.00;99886.78;5087968;28;20180;-75
2023/06/19 02:21:41;;;;;;;3.97;3.67;;;;;;;20.85;100.00;99888.47;5093250;28;20213;-76
2023/06/19 02:24:06;;;;;;;3.80;3.43;;;;;;;20.83;100.00;99889.47;5096683;28;20184;-75
2023/06/19 02:26:32;;;;;;;5.13;3.60;;;;;;;20.82;100.00;99896.53;5085990;28;20210;-75
2023/06/19 02:28:57;;;;;;;3.87;3.47;;;;;;;20.83;100.00;99897.38;5088385;28;20188;-76
2023/06/19 02:31:23;;;;;;;3.10;2.90;;;;;;;20.82;100.00;99885.16;5088523;28;20284;-75
2023/06/19 02:33:48;;;;;;;3.20;2.90;;;;;;;20.79;100.00;99890.59;5092575;28;20658;-75
2023/06/19 02:36:19;;;;;;;3.90;3.60;;;;;;;20.78;100.00;99884.50;5093851;28;20185;-76
2023/06/19 02:38:48;;;;;;;3.60;3.30;;;;;;;20.77;100.00;99879.34;5089268;28;20180;-76
2023/06/19 02:41:13;;;;;;;4.10;3.80;;;;;;;20.85;100.00;99885.84;5091612;28;20223;-76
2023/06/19 02:43:40;;;;;;;3.90;3.60;;;;;;;20.83;100.00;99884.22;5095203;28;20187;-74
2023/06/19 02:46:06;;;;;;;4.20;3.90;;;;;;;20.89;100.00;99886.50;5096617;28;20734;-75
2023/06/19 02:48:31;;;;;;;4.00;3.70;;;;;;;20.86;100.00;99889.31;5096699;28;20185;-75
2023/06/19 02:50:56;;;;;;;4.27;3.97;;;;;;;20.88;100.00;99894.47;5093158;28;20393;-75
2023/06/19 02:53:22;;;;;;;3.93;3.63;;;;;;;20.88;100.00;99890.06;5087464;28;20181;-75
2023/06/19 02:55:47;;;;;;;3.50;3.23;;;;;;;20.91;100.00;99889.03;5088325;28;20565;-75
2023/06/19 02:58:12;;;;;;;4.03;3.73;;;;;;;20.91;100.00;99902.19;5114831;27;20697;-75
2023/06/19 03:00:38;;;;;;;3.23;2.93;;;;;;;20.92;100.00;99898.59;5083758;28;20291;-76
2023/06/19 03:03:03;;;;;;;3.70;3.40;;;;;;;20.92;100.00;99904.72;5076805;28;20314;-76
2023/06/19 03:05:28;;;;;;;3.77;3.47;;;;;;;20.91;100.00;99917.97;5089074;28;20193;-76
2023/06/19 03:07:53;;;;;;;3.43;3.23;;;;;;;20.87;100.00;99922.56;5098175;28;20310;-77
2023/06/19 03:10:19;;;;;;;3.37;3.07;;;;;;;20.85;100.00;99930.53;5078316;28;20319;-75
2023/06/19 03:12:45;;;;;;;3.73;3.07;;;;;;;20.84;100.00;99931.47;5090568;28;20365;-76
2023/06/19 03:15:10;;;;;;;3.50;3.20;;;;;;;20.85;100.00;99941.06;5081500;28;20197;-77
2023/06/19 03:17:36;;;;;;;3.17;2.97;;;;;;;20.84;100.00;99930.63;5086405;28;20334;-75
2023/06/19 03:20:01;;;;;;;3.97;2.90;;;;;;;20.83;100.00;99948.19;5088075;28;20611;-76
2023/06/19 03:22:27;;;;;;;2.90;2.70;;;;;;;20.80;100.00;99951.00;5079473;28;20623;-75
2023/06/19 03:24:52;;;;;;;3.53;2.73;;;;;;;20.79;100.00;99946.66;5086968;28;20184;-75
2023/06/19 03:27:18;;;;;;;3.03;2.83;;;;;;;20.80;100.00;99958.88;5087431;28;20192;-76
2023/06/19 03:29:43;;;;;;;2.77;2.40;;;;;;;;;;5083252;28;20559;-74
2023/06/19 03:32:08;;;;;;;2.97;2.77;;;;;;;20.82;100.00;99958.78;5084571;28;20202;-77
2023/06/19 03:34:34;;;;;;;2.80;2.60;;;;;;;20.84;100.00;99957.78;5087299;28;20189;-75
2023/06/19 03:36:59;;;;;;;3.13;2.83;;;;;;;20.84;100.00;99960.41;5088457;28;20184;-76
2023/06/19 03:39:24;;;;;;;14.47;4.70;;;;;;;20.86;100.00;99961.19;5087009;28;20184;-76
2023/06/19 03:41:50;;;;;;;4.20;3.40;;;;;;;20.88;100.00;99962.84;5083908;28;20610;-76
2023/06/19 03:44:15;;;;;;;3.23;2.97;;;;;;;20.91;100.00;99963.53;5086941;28;20743;-76
2023/06/19 03:46:41;;;;;;;2.97;2.77;;;;;;;20.92;100.00;99959.97;5091937;27;20638;-77
2023/06/19 03:49:06;;;;;;;3.60;3.30;;;;;;;20.94;100.00;99958.09;5084207;28;20231;-75
2023/06/19 03:51:32;;;;;;;3.27;2.80;;;;;;;20.97;100.00;99957.06;5085515;28;20287;-76
2023/06/19 03:53:57;;;;;;;3.20;3.00;;;;;;;20.99;100.00;99957.84;5088105;28;20183;-76
2023/06/19 03:56:23;;;;;;;3.00;2.80;;;;;;;21.00;100.00;99949.00;5077666;28;20653;-76
2023/06/19 03:58:48;;;;;;;3.37;3.07;;;;;;;21.00;100.00;99955.09;5097961;28;20180;-76
2023/06/19 04:01:13;;;;;;;3.37;3.07;;;;;;;21.00;100.00;99949.84;5095207;28;20347;-76
2023/06/19 04:03:39;;;;;;;3.87;3.13;;;;;;;21.00;100.00;99955.09;5098098;28;20193;-78
2023/06/19 04:06:04;;;;;;;3.20;2.90;;;;;;;21.02;100.00;99961.13;5081157;27;20208;-77
2023/06/19 04:08:29;;;;;;;3.17;2.97;;;;;;;21.06;100.00;99964.41;5084051;28;20185;-77
2023/06/19 04:10:55;;;;;;;3.23;3.03;;;;;;;21.11;100.00;99972.91;5095427;28;20771;-77
2023/06/19 04:13:20;;;;;;;2.93;2.73;;;;;;;21.19;100.00;99980.34;5085974;28;20196;-76
2023/06/19 04:15:46;;;;;;;3.27;3.07;;;;;;;21.26;100.00;99980.84;5086871;28;20283;-76
2023/06/19 04:18:12;;;;;;;2.80;2.60;;;;;;;21.34;100.00;99993.53;5084225;28;20733;-76
2023/06/19 04:20:37;;;;;;;3.00;2.80;;;;;;;21.41;100.00;99986.97;5083482;28;20213;-76
2023/06/19 04:23:02;;;;;;;3.23;2.93;;;;;;;21.48;100.00;99990.94;5094182;28;20180;-75
2023/06/19 04:25:28;;;;;;;3.40;3.10;;;;;;;21.53;100.00;99996.78;5092134;28;20193;-73
2023/06/19 04:27:53;;;;;;;3.13;2.73;;;;;;;21.59;100.00;99996.41;5079994;28;20212;-75
2023/06/19 04:30:20;;;;;;;2.93;2.73;;;;;;;21.66;100.00;99999.53;5086079;28;20216;-74
2023/06/19 04:32:46;;;;;;;2.77;2.57;;;;;;;21.75;100.00;100000.78;5088283;28;20206;-75
2023/06/19 04:35:11;;;;;;;3.80;2.73;;;;;;;21.82;100.00;99999.50;5075644;28;20176;-75
2023/06/19 04:37:37;;;;;;;3.20;3.00;;;;;;;21.90;100.00;99991.94;5081751;28;20188;-76
2023/06/19 04:40:03;;;;;;;3.33;3.13;;;;;;;21.98;100.00;99991.47;5082113;28;20186;-75
2023/06/19 04:42:29;;;;;;;3.60;3.30;;;;;;;22.04;100.00;99985.84;5083713;28;20189;-75
2023/06/19 04:44:55;;;;;;;3.00;2.80;;;;;;;22.14;99.92;99980.00;5089051;28;20188;-76
2023/06/19 04:47:23;;;;;;;3.10;2.90;;;;;;;22.17;99.55;99980.63;5090807;28;20234;-76
2023/06/19 04:49:48;;;;;;;3.60;3.30;;;;;;;22.24;99.79;99975.81;5074555;28;20653;-75
2023/06/19 04:52:13;;;;;;;3.20;2.90;;;;;;;22.35;99.31;99962.84;5083505;28;20205;-75
2023/06/19 04:54:39;;;;;;;3.30;3.00;;;;;;;22.44;98.66;99966.72;5094094;28;20185;-75
2023/06/19 04:57:05;;;;;;;3.60;3.07;;;;;;;22.45;98.60;99964.91;5084501;28;20196;-74
2023/06/19 04:59:30;;;;;;;3.40;3.10;;;;;;;22.51;98.69;99972.44;5084050;28;20660;-76
2023/06/19 05:01:57;;;;;;;3.40;3.10;;;;;;;22.57;98.50;99972.03;5084082;28;20246;-76
2023/06/19 05:04:22;;;;;;;3.70;3.40;;;;;;;22.65;98.21;99967.13;5080477;28;20230;-76
2023/06/19 05:06:48;;;;;;;3.00;2.80;;;;;;;22.75;98.13;99972.63;5083455;28;20201;-75
2023/06/19 05:09:14;;;;;;;3.03;2.83;;;;;;;22.92;97.50;99968.03;5082561;28;20191;-75
2023/06/19 05:11:39;;;;;;;3.80;3.50;;;;;;;23.16;97.09;99962.06;5082676;28;20236;-76
2023/06/19 05:14:04;;;;;;;3.00;2.80;;;;;;;23.56;95.43;99967.31;5075649;28;20683;-76
2023/06/19 05:16:30;;;;;;;2.97;2.73;;;;;;;23.93;93.91;99962.13;5072676;28;20744;-76
2023/06/19 05:18:55;;;;;;;3.30;3.10;;;;;;;24.38;92.10;99966.06;5088905;28;20230;-75
2023/06/19 05:21:20;;;;;;;3.07;2.87;;;;;;;24.79;90.51;99975.47;5104932;28;20820;-75
2023/06/19 05:23:50;;;;;;;3.23;2.93;;;;;;;25.14;88.93;99977.28;5084180;28;20190;-75
2023/06/19 05:26:16;;;;;;;3.57;2.90;;;;;;;25.59;87.55;99965.97;5073867;28;20196;-76
2023/06/19 05:28:42;;;;;;;2.87;2.57;;;;;;;25.88;86.49;99957.53;5090654;28;20263;-76
2023/06/19 05:31:07;;;;;;;3.50;3.20;;;;;;;25.89;85.57;99955.75;5096388;28;20212;-76
2023/06/19 05:33:32;;;;;;;2.93;2.73;;;;;;;26.02;85.24;99959.94;5093839;28;20303;-75
2023/06/19 05:35:58;;;;;;;3.37;3.07;;;;;;;26.12;84.25;99960.06;5097657;28;20724;-76
2023/06/19 05:38:25;;;;;;;3.30;2.77;;;;;;;26.02;84.13;99962.59;5080993;28;20327;-76
2023/06/19 05:40:51;;;;;;;3.47;2.73;;;;;;;25.89;84.54;99961.03;5087806;28;20296;-77
2023/06/19 05:43:18;;;;;;;3.23;2.93;;;;;;;25.85;84.91;99966.56;5089525;28;20185;-76
2023/06/19 05:45:44;;;;;;;3.30;3.10;;;;;;;26.38;84.42;99966.91;5086090;28;20189;-74
2023/06/19 05:48:09;;;;;;;4.07;3.20;;;;;;;27.03;82.27;99964.31;5084221;28;20229;-76
2023/06/19 05:50:34;;;;;;;3.43;3.10;;;;;;;27.65;80.57;99973.25;5085238;28;20310;-75
2023/06/19 05:53:00;;;;;;;3.13;2.93;;;;;;;28.36;77.99;99974.22;5079592;28;20185;-75
2023/06/19 05:55:27;;;;;;;3.38;3.08;;;;;;;28.85;76.87;99981.47;5088922;28;20743;-75
2023/06/19 05:57:52;;;;;;;3.40;3.20;;;;;;;29.15;76.14;99979.63;5087553;28;20177;-76
2023/06/19 06:00:19;;;;;;;2.95;2.75;;;;;;;29.68;74.29;99986.25;5080697;28;20203;-76
2023/06/19 06:02:44;;;;;;;3.08;2.88;;;;;;;30.20;73.26;99971.56;5092950;28;20499;-76
2023/06/19 06:05:10;;;;;;;3.33;3.05;;;;;;;30.26;71.91;99974.50;5075810;28;20261;-75
2023/06/19 06:07:35;;;;;;;3.53;3.00;;;;;;;30.68;71.27;99973.13;5087303;28;20256;-75
2023/06/19 06:10:01;;;;;;;3.08;2.78;;;;;;;31.21;70.14;99983.94;5089186;28;20196;-75
2023/06/19 06:12:26;;;;;;;2.88;2.67;;;;;;;31.68;69.85;99979.22;5092815;28;20200;-75
2023/06/19 06:14:52;;;;;;;2.97;2.78;;;;;;;32.12;68.66;99989.81;5091292;28;20203;-76
2023/06/19 06:17:17;;;;;;;2.90;2.70;;;;;;;32.44;67.59;99987.41;5086731;27;20211;-75
2023/06/19 06:19:42;;;;;;;2.95;2.75;;;;;;;32.89;66.88;99983.47;5082783;28;20284;-74
2023/06/19 06:22:08;;;;;;;2.90;2.70;;;;;;;32.94;67.04;99983.81;5099840;28;20695;-76
2023/06/19 06:24:33;;;;;;;3.15;2.85;;;;;;;33.22;66.22;99988.84;5086644;28;21172;-75
2023/06/19 06:26:58;;;;;;;2.70;2.45;;;;;;;33.63;64.34;99982.59;5089860;28;20377;-76
2023/06/19 06:29:24;;;;;;;4.68;2.70;;;;;;;33.73;63.65;99979.72;5086278;28;20189;-75
2023/06/19 06:31:52;;;;;;;2.92;2.40;;;;;;;33.79;63.62;99986.22;5097074;28;20285;-76
2023/06/19 06:34:18;;;;;;;2.38;2.17;;;;;;;33.94;63.53;99995.25;5089695;28;20244;-78
2023/06/19 06:36:43;;;;;;;2.65;2.45;;;;;;;34.01;63.28;100000.75;5098759;28;20177;-77
2023/06/19 06:39:09;;;;;;;2.40;2.20;;;;;;;33.57;63.66;100002.03;5093608;27;20657;-77
2023/06/19 06:41:34;;;;;;;2.58;2.20;;;;;;;33.24;63.24;100010.09;5092203;28;20225;-77
2023/06/19 06:44:01;;;;;;;2.15;2.00;;;;;;;33.58;63.02;100019.81;5100462;28;20172;-75
2023/06/19 06:46:26;;;;;;;2.17;2.08;;;;;;;33.58;63.08;100011.75;5091410;27;20248;-76
2023/06/19 06:48:51;;;;;;;2.72;2.08;;;;;;;33.71;62.30;100025.47;5101979;28;20557;-76
2023/06/19 06:51:17;;;;;;;2.42;2.22;;;;;;;33.89;62.18;100035.19;5093257;28;20201;-76
2023/06/19 06:53:42;;;;;;;3.40;2.25;;;;;;;33.35;62.15;100036.63;5097965;28;20230;-76
2023/06/19 06:56:07;;;;;;;3.58;2.08;;;;;;;32.93;62.75;100037.56;5086011;28;20185;-75
2023/06/19 06:58:33;;;;;;;1.92;1.83;;;;;;;32.43;63.51;100040.16;5088843;28;20184;-76
2023/06/19 07:00:58;;;;;;;2.70;2.40;;;;;;;31.34;65.63;100046.84;5087336;28;20209;-75
2023/06/19 07:03:23;;;;;;;2.83;2.60;;;;;;;31.25;66.02;100049.44;5088307;28;20189;-76
2023/06/19 07:05:48;;;;;;;3.10;2.20;;;;;;;30.93;65.67;100061.53;5089229;28;20184;-75
2023/06/19 07:08:14;;;;;;;2.58;2.25;;;;;;;30.59;66.30;100055.97;5087094;28;20260;-75
2023/06/19 07:10:39;;;;;;;2.47;2.28;;;;;;;30.00;67.54;100059.75;5079804;28;20556;-75
2023/06/19 07:13:05;;;;;;;4.30;2.40;;;;;;;30.08;67.16;100070.50;5087540;28;20185;-75
2023/06/19 07:15:30;;;;;;;4.72;2.45;;;;;;;29.47;68.22;100064.59;5088266;28;20743;-74
2023/06/19 07:17:56;;;;;;;3.38;2.60;;;;;;;29.00;69.54;100067.97;5098429;28;20677;-75
2023/06/19 07:20:22;;;;;;;29.23;6.30;;;;;;;28.82;70.47;100064.28;5091557;28;20204;-74
2023/06/19 07:22:47;;;;;;;5.00;3.13;;;;;;;28.94;70.04;100081.81;5086595;28;20178;-75
2023/06/19 07:25:13;;;;;;;3.70;2.85;;;;;;;28.90;69.86;100081.25;5087389;28;20646;-75
2023/06/19 07:27:40;;;;;;;3.08;2.72;;;;;;;28.88;70.23;100087.72;5080224;28;20640;-75
2023/06/19 07:30:06;;;;;;;5.25;3.10;;;;;;;28.71;70.58;100082.03;5087712;28;20180;-75
2023/06/19 07:32:32;;;;;;;3.60;3.17;;;;;;;28.44;71.26;100091.47;5103016;28;20268;-76
2023/06/19 07:34:58;;;;;;;3.63;3.10;;;;;;;28.35;72.02;100092.28;5085151;28;20290;-74
2023/06/19 07:37:23;;;;;;;6.93;3.10;;;;;;;28.33;71.87;100096.91;5084519;28;20680;-74
2023/06/19 07:39:50;;;;;;;3.57;2.93;;;;;;;28.24;72.30;100100.38;5085007;28;20184;-73
2023/06/19 07:42:17;;;;;;;5.10;3.33;;;;;;;28.19;72.52;100103.44;5091923;27;20214;-77
2023/06/19 07:44:43;;;;;;;4.67;3.33;;;;;;;28.00;73.34;100101.47;5090117;28;20192;-75
2023/06/19 07:47:08;;;;;;;4.27;3.30;;;;;;;27.99;73.75;100111.28;5088222;28;20246;-77
2023/06/19 07:49:35;;;;;;;4.67;3.53;;;;;;;27.92;73.93;100106.59;5092784;28;20668;-74
2023/06/19 07:52:00;;;;;;;3.30;3.03;;;;;;;27.99;73.80;100103.28;5097999;28;20196;-75
2023/06/19 07:54:26;;;;;;;3.40;3.20;;;;;;;28.20;73.64;100107.78;5087134;28;20185;-74
2023/06/19 07:56:51;;;;;;;3.80;3.50;;;;;;;28.49;74.03;100107.06;5087718;28;20213;-75
2023/06/19 07:59:17;;;;;;;3.50;3.20;;;;;;;28.90;73.36;100110.56;5082537;28;20191;-75
2023/06/19 08:01:42;;;;;;;4.20;3.50;;;;;;;29.28;72.29;100107.22;5086107;28;20213;-75
2023/06/19 08:04:08;;;;;;;8.07;3.67;;;;;;;29.63;72.23;100103.16;5089576;28;20185;-75
2023/06/19 08:06:33;;;;;;;4.65;3.55;;;;;;;29.84;71.75;100107.50;5084280;28;20182;-75
2023/06/19 08:08:58;;;;;;;3.13;2.92;;;;;;;30.10;71.39;100102.41;5099077;28;20180;-76
2023/06/19 08:11:24;;;;;;;3.35;3.05;;;;;;;30.44;70.76;100106.34;5088184;28;20201;-76
2023/06/19 08:13:49;;;;;;;3.35;3.05;;;;;;;30.70;69.47;100104.69;5087069;28;20213;-77
2023/06/19 08:16:14;;;;;;;3.75;3.45;;;;;;;30.93;69.64;100101.59;5088105;28;20304;-76
2023/06/19 08:18:40;;;;;;;3.45;3.15;;;;;;;30.97;69.75;100108.28;5083115;28;20656;-73
2023/06/19 08:21:05;;;;;;;6.10;3.38;;;;;;;31.22;69.39;100097.91;5084527;28;20275;-76
2023/06/19 08:23:30;;;;;;;3.92;3.15;;;;;;;31.38;68.84;100105.19;5090280;28;20221;-76
2023/06/19 08:25:56;;;;;;;3.67;3.38;;;;;;;31.37;68.36;100102.69;5082148;28;20243;-75
2023/06/19 08:28:21;;;;;;;3.90;3.53;;;;;;;31.30;68.66;100099.81;5083183;28;20188;-76
2023/06/19 08:30:46;;;;;;;3.38;3.05;;;;;;;31.16;68.88;100101.16;5093624;28;20539;-76
2023/06/19 08:33:14;;;;;;;3.55;3.28;;;;;;;31.18;69.37;100099.19;5076087;28;20230;-75
2023/06/19 08:35:39;;;;;;;3.50;3.30;;;;;;;31.08;69.51;100101.06;5102633;28;20214;-77
2023/06/19 08:38:04;;;;;;;4.00;3.70;;;;;;;30.92;69.79;100097.25;5100043;28;20188;-75
2023/06/19 08:40:30;;;;;;;3.50;3.20;;;;;;;31.04;69.85;100097.84;5087813;28;20216;-76
2023/06/19 08:42:55;;;;;;;4.75;4.25;;;;;;;30.82;69.69;100097.31;5085422;28;20223;-75
2023/06/19 08:45:21;;;;;;;4.15;3.83;;;;;;;30.20;70.96;100107.69;5095522;28;20200;-75
2023/06/19 08:47:48;;;;;;;3.85;3.58;;;;;;;30.48;71.27;100107.72;5090414;28;20181;-75
2023/06/19 08:50:17;;;;;;;4.15;3.65;;;;;;;30.89;71.49;100105.56;5090382;28;20212;-76
2023/06/19 08:52:42;;;;;;;4.35;3.33;;;;;;;31.29;69.90;100106.13;5100904;28;20191;-77
2023/06/19 08:55:08;;;;;;;3.75;3.45;;;;;;;30.99;70.66;100100.16;5092198;28;20548;-76
2023/06/19 08:57:40;;;;;;;3.85;3.55;;;;;;;30.36;70.70;100113.25;5096483;28;20192;-75
2023/06/19 09:00:15;;;;;;;4.10;3.80;;;;;;;30.54;70.78;100108.00;5071999;28;20193;-77
2023/06/19 09:02:42;;;;;;;4.32;3.83;;;;;;;30.59;70.63;100104.03;5083376;28;20281;-74
2023/06/19 09:05:18;;;;;;;4.80;4.25;;;;;;;30.59;70.28;100107.56;5079589;28;20190;-75
2023/06/19 09:07:53;;;;;;;4.47;3.90;;;;;;;30.09;70.57;100114.88;5088156;28;20194;-75
2023/06/19 09:10:19;;;;;;;3.88;3.58;;;;;;;30.17;70.80;100111.50;5090379;27;20208;-75
2023/06/19 09:12:59;;;;;;;4.22;3.92;;;;;;;30.17;71.03;100113.34;5083104;28;20208;-75
2023/06/19 09:15:31;;;;;;;3.88;3.58;;;;;;;29.95;71.16;100107.34;5083637;28;20196;-74
2023/06/19 09:18:03;;;;;;;4.55;3.85;;;;;;;29.66;71.98;100105.56;5080873;28;20188;-74
2023/06/19 09:20:29;;;;;;;4.40;4.07;;;;;;;29.74;71.74;100107.50;5088067;28;20263;-74
2023/06/19 09:22:55;;;;;;;4.15;3.38;;;;;;;29.85;71.64;100095.84;5088542;28;20180;-76
2023/06/19 09:25:23;;;;;;;4.32;3.92;;;;;;;29.92;71.34;100099.59;5074459;28;20181;-74
2023/06/19 09:27:48;;;;;;;4.90;4.55;;;;;;;29.61;70.74;100099.78;5086773;28;20180;-76
2023/06/19 09:30:16;;;;;;;4.82;4.35;;;;;;;29.56;71.68;100096.75;5090433;28;20203;-75
2023/06/19 09:32:41;;;;;;;4.32;3.95;;;;;;;29.76;71.68;100097.53;5085984;28;20187;-75
2023/06/19 09:35:07;;;;;;;3.72;3.45;;;;;;;29.98;71.31;100090.19;5087725;28;20727;-75
2023/06/19 09:37:32;;;;;;;4.22;3.83;;;;;;;30.37;71.35;100095.41;5083847;28;20212;-76
2023/06/19 09:39:58;;;;;;;4.22;3.90;;;;;;;30.53;70.18;100089.41;5084321;28;20205;-77
2023/06/19 09:42:28;;;;;;;4.20;3.90;;;;;;;30.56;69.76;100091.81;5093917;28;20261;-76
2023/06/19 09:45:06;;;;;;;4.88;4.47;;;;;;;30.69;69.18;100072.78;5084785;28;20185;-75
2023/06/19 09:47:35;;;;;;;4.35;3.95;;;;;;;30.87;69.20;100070.13;5081001;28;20200;-75
2023/06/19 09:50:02;;;;;;;4.32;4.03;;;;;;;30.94;68.89;100079.19;5091479;28;20740;-75
2023/06/19 09:52:28;;;;;;;5.20;4.13;;;;;;;31.10;68.39;100083.03;5083962;28;20200;-75
2023/06/19 09:54:54;;;;;;;4.60;4.28;;;;;;;30.92;69.31;100073.19;5094256;28;20227;-75
2023/06/19 09:57:20;;;;;;;5.75;4.30;;;;;;;30.44;70.10;100079.66;5083703;28;20237;-74
2023/06/19 09:59:49;;;;;;;4.70;4.40;;;;;;;30.26;70.52;100078.56;5098977;28;20181;-74
2023/06/19 10:02:17;;;;;;;4.00;3.70;;;;;;;30.25;71.28;100078.75;5092053;28;20217;-75
2023/06/19 10:04:49;;;;;;;4.40;4.10;;;;;;;30.48;70.95;100087.19;5094419;28;20184;-76
2023/06/19 10:07:20;;;;;;;4.10;3.80;;;;;;;30.59;70.46;100074.66;5094359;28;20180;-76
2023/06/19 10:10:06;;;;;;;4.28;3.88;;;;;;;30.73;70.70;100076.00;5106284;28;20267;-76
2023/06/19 10:12:41;;;;;;;4.40;4.10;;;;;;;30.64;70.45;100062.53;5094849;28;20235;-75
2023/06/19 10:15:24;;;;;;;4.28;3.97;;;;;;;30.65;70.08;100058.88;5091511;28;20197;-75
2023/06/19 10:18:05;;;;;;;4.35;4.05;;;;;;;30.93;69.88;100058.00;5084543;28;20963;-75
2023/06/19 10:20:32;;;;;;;4.70;4.05;;;;;;;31.19;69.59;100054.56;5086759;28;20743;-75
2023/06/19 10:23:03;;;;;;;4.30;4.00;;;;;;;31.37;69.09;100043.88;5096270;28;20291;-75
2023/06/19 10:25:31;;;;;;;3.78;3.58;;;;;;;31.39;69.58;100050.75;5091327;28;20226;-76
2023/06/19 10:27:58;;;;;;;4.70;4.40;;;;;;;31.57;68.76;100047.19;5085497;28;20668;-76
2023/06/19 10:30:23;;;;;;;4.53;3.83;;;;;;;31.31;67.71;100048.00;5087324;28;20673;-76
2023/06/19 10:32:49;;;;;;;5.25;4.75;;;;;;;30.61;67.83;100048.66;5088517;28;20165;-76
2023/06/19 10:35:16;;;;;;;5.55;4.85;;;;;;;30.49;69.09;100051.50;5087470;28;20191;-76
2023/06/19 10:37:42;;;;;;;4.18;3.88;;;;;;;30.34;69.94;100047.66;5100567;28;20168;-77
2023/06/19 10:40:09;;;;;;;4.13;3.75;;;;;;;30.71;69.41;100044.06;5084934;28;20196;-76
2023/06/19 10:42:37;;;;;;;4.40;4.10;;;;;;;31.05;69.45;100032.72;5094217;28;20216;-75
2023/06/19 10:45:03;;;;;;;4.72;4.32;;;;;;;30.35;70.20;100046.66;5081776;28;20664;-76
2023/06/19 10:47:29;;;;;;;4.93;4.43;;;;;;;30.25;71.04;100047.53;5093548;28;20699;-77
2023/06/19 10:49:54;;;;;;;4.65;4.35;;;;;;;29.79;71.23;100039.41;5096476;28;20181;-76
2023/06/19 10:52:20;;;;;;;5.10;4.60;;;;;;;30.00;70.98;100045.53;5101822;27;20279;-76
2023/06/19 10:54:45;;;;;;;4.53;4.20;;;;;;;30.05;71.43;100044.13;5080511;28;20181;-78
2023/06/19 10:57:13;;;;;;;4.30;4.00;;;;;;;30.17;70.79;100047.44;5086987;28;20185;-76
2023/06/19 10:59:39;;;;;;;4.95;4.53;;;;;;;30.42;70.96;100034.38;5078146;28;20180;-76
2023/06/19 11:02:05;;;;;;;5.15;4.22;;;;;;;30.53;69.71;100030.69;5074401;28;20263;-76
2023/06/19 11:04:31;;;;;;;4.53;4.13;;;;;;;30.33;69.62;100035.28;5085915;28;20215;-76
2023/06/19 11:06:56;;;;;;;4.35;4.03;;;;;;;30.53;70.27;100023.53;5095270;28;20304;-77
2023/06/19 11:09:22;;;;;;;5.22;4.07;;;;;;;30.71;71.08;100015.56;5099558;28;20177;-76
2023/06/19 11:11:48;;;;;;;5.03;4.55;;;;;;;30.87;69.86;100016.69;5082213;28;20197;-76
2023/06/19 11:14:15;;;;;;;4.45;4.15;;;;;;;31.13;68.93;100013.28;5088327;28;20169;-77
2023/06/19 11:16:43;;;;;;;4.40;4.10;;;;;;;31.16;68.87;100007.63;5083789;28;20193;-78
2023/06/19 11:19:13;;;;;;;4.50;4.10;;;;;;;31.37;69.38;100009.94;5086738;28;20185;-76
2023/06/19 11:21:38;;;;;;;4.10;3.80;;;;;;;31.62;68.63;100007.41;5078318;28;20243;-76
2023/06/19 11:24:06;;;;;;;4.15;3.85;;;;;;;31.75;68.23;100015.06;5085325;28;20267;-76